Time;durP1;ratioP1;P1;durP2;ratioP2;P2;SDS_P1;SDS_P2;PMS_P1;PMS_P2;Temp;Humidity;BMP_temperature;BMP_pressure;BME280_temperature;BME280_humidity;BME280_pressure;Samples;Min_cycle;Max_cycle;Signal;HPM_P1;HPM_P2
2023/03/27 00:01:35;;;;;;;20.90;2.50;;;;;;;;;;5049940;28;20354;-59
2023/03/27 00:04:01;;;;;;;13.50;3.37;;;;;;;;;;5049348;28;20057;-59
2023/03/27 00:06:27;;;;;;;15.70;3.10;;;;;;;;;;5050135;28;20293;-59
2023/03/27 00:08:53;;;;;;;13.07;3.03;;;;;;;;;;5049509;28;20964;-59
2023/03/27 00:11:21;;;;;;;14.23;2.83;;;;;;;;;;5049764;28;20666;-59
2023/03/27 00:13:48;;;;;;;11.93;2.00;;;;;;;;;;5028225;28;20295;-59
2023/03/27 00:16:15;;;;;;;9.83;2.17;;;;;;;;;;5029421;28;20323;-59
2023/03/27 00:18:41;;;;;;;9.60;2.73;;;;;;;;;;5029849;28;20284;-60
2023/03/27 00:21:07;;;;;;;11.33;2.37;;;;;;;;;;5029884;28;20350;-59
2023/03/27 00:23:33;;;;;;;14.37;2.87;;;;;;;;;;5029702;28;20316;-60
2023/03/27 00:25:59;;;;;;;11.53;2.17;;;;;;;;;;5029168;28;20778;-60
2023/03/27 00:28:27;;;;;;;12.10;2.57;;;;;;;;;;5036132;28;20303;-59
2023/03/27 00:30:54;;;;;;;12.93;2.43;;;;;;;;;;5049085;28;20318;-60
2023/03/27 00:33:20;;;;;;;18.93;2.47;;;;;;;;;;5049653;28;20291;-60
2023/03/27 00:35:47;;;;;;;11.00;2.67;;;;;;;;;;5049502;28;20330;-60
2023/03/27 00:38:14;;;;;;;23.30;3.57;;;;;;;;;;5049818;28;20669;-60
2023/03/27 00:40:42;;;;;;;15.80;3.00;;;;;;;;;;5049323;28;20284;-59
2023/03/27 00:43:19;;;;;;;10.07;1.70;;;;;;;;;;5049622;28;20386;-59
2023/03/27 00:45:46;;;;;;;11.90;3.17;;;;;;;;;;5049090;28;20302;-60
2023/03/27 00:48:14;;;;;;;13.17;1.83;;;;;;;;;;5053817;28;20287;-60
2023/03/27 00:50:41;;;;;;;8.90;2.73;;;;;;;;;;5051917;28;20287;-60
2023/03/27 00:53:13;;;;;;;18.53;2.53;;;;;;;;;;5053382;28;20359;-60
2023/03/27 00:55:41;;;;;;;12.77;2.07;;;;;;;;;;5053022;28;20454;-59
2023/03/27 00:58:11;;;;;;;11.20;2.10;;;;;;;;;;5053744;28;20279;-60
2023/03/27 01:00:37;;;;;;;11.57;2.00;;;;;;;;;;5052909;28;20374;-60
2023/03/27 01:03:05;;;;;;;11.57;2.07;;;;;;;;;;5053224;28;20283;-60
2023/03/27 01:05:31;;;;;;;9.57;1.93;;;;;;;;;;5051618;28;20647;-60
2023/03/27 01:07:57;;;;;;;8.17;1.90;;;;;;;;;;5051868;28;20304;-60
2023/03/27 01:10:27;;;;;;;12.27;2.30;;;;;;;;;;5052240;28;20284;-60
2023/03/27 01:13:12;;;;;;;12.63;2.27;;;;;;;;;;5052052;28;20290;-60
2023/03/27 01:15:43;;;;;;;11.50;2.07;;;;;;;;;;5050531;28;20674;-60
2023/03/27 01:18:18;;;;;;;13.00;2.37;;;;;;;;;;5051380;28;20300;-60
2023/03/27 01:20:45;;;;;;;12.63;2.83;;;;;;;;;;5051617;28;20307;-60
2023/03/27 01:23:14;;;;;;;9.53;2.93;;;;;;;;;;5051932;28;20394;-59
2023/03/27 01:25:59;;;;;;;10.37;2.40;;;;;;;;;;5051774;28;20283;-59
2023/03/27 01:28:44;;;;;;;10.77;2.57;;;;;;;;;;5051753;28;21123;-59
2023/03/27 01:31:16;;;;;;;8.93;2.20;;;;;;;;;;5051551;28;20378;-59
2023/03/27 01:34:01;;;;;;;9.23;1.80;;;;;;;;;;5051856;28;20341;-60
2023/03/27 01:36:50;;;;;;;7.73;2.07;;;;;;;;;;5051574;28;20291;-60
2023/03/27 01:39:22;;;;;;;12.23;1.90;;;;;;;;;;5048527;28;20299;-60
2023/03/27 01:41:54;;;;;;;9.70;2.20;;;;;;;;;;5051466;28;20648;-60
2023/03/27 01:44:32;;;;;;;11.63;2.83;;;;;;;;;;5049572;28;20346;-60
2023/03/27 01:47:03;;;;;;;13.13;2.07;;;;;;;;;;5051627;28;20292;-60
2023/03/27 01:49:59;;;;;;;13.90;2.33;;;;;;;;;;5051381;28;20302;-60
2023/03/27 01:52:27;;;;;;;9.70;1.90;;;;;;;;;;5041030;28;20298;-60
2023/03/27 01:54:57;;;;;;;12.80;2.13;;;;;;;;;;5050918;28;20800;-60
2023/03/27 01:57:28;;;;;;;14.20;2.27;;;;;;;;;;5049736;28;20327;-60
2023/03/27 02:00:14;;;;;;;11.87;2.30;;;;;;;;;;5051194;28;20280;-60
2023/03/27 02:02:41;;;;;;;13.27;2.50;;;;;;;;;;5050868;28;20291;-60
2023/03/27 02:05:12;;;;;;;12.37;2.17;;;;;;;;;;5051482;28;20343;-60
2023/03/27 02:07:41;;;;;;;9.33;1.80;;;;;;;;;;5050862;28;20287;-60
2023/03/27 02:10:09;;;;;;;9.93;2.07;;;;;;;;;;5051020;28;20280;-60
2023/03/27 02:12:38;;;;;;;14.73;2.63;;;;;;;;;;5050973;28;20287;-60
2023/03/27 02:15:08;;;;;;;6.10;1.83;;;;;;;;;;5050341;28;20350;-60
2023/03/27 02:17:37;;;;;;;8.33;2.37;;;;;;;;;;5051024;28;20287;-60
2023/03/27 02:20:13;;;;;;;14.50;2.00;;;;;;;;;;5051061;28;20860;-60
2023/03/27 02:22:39;;;;;;;15.67;2.13;;;;;;;;;;5050453;28;20422;-60
2023/03/27 02:25:23;;;;;;;6.80;2.10;;;;;;;;;;5050909;28;20311;-60
2023/03/27 02:27:51;;;;;;;8.10;1.52;;;;;;;;;;5050991;28;20276;-60
2023/03/27 02:30:19;;;;;;;9.40;1.80;;;;;;;;;;5050701;28;20049;-59
2023/03/27 02:32:45;;;;;;;9.83;1.83;;;;;;;;;;5049612;28;20303;-60
2023/03/27 02:35:11;;;;;;;19.33;2.23;;;;;;;;;;5050261;28;20299;-60
2023/03/27 02:37:40;;;;;;;20.17;3.23;;;;;;;;;;5050359;28;20045;-60
2023/03/27 02:40:12;;;;;;;10.33;2.10;;;;;;;;;;5050709;28;20341;-60
2023/03/27 02:42:57;;;;;;;12.90;1.93;;;;;;;;;;5050419;28;20323;-60
2023/03/27 02:45:46;;;;;;;12.27;1.97;;;;;;;;;;5050104;28;20797;-60
2023/03/27 02:48:30;;;;;;;8.63;2.60;;;;;;;;;;5046863;28;20294;-60
2023/03/27 02:50:59;;;;;;;13.90;2.50;;;;;;;;;;5050346;28;20302;-60
2023/03/27 02:53:27;;;;;;;12.67;1.80;;;;;;;;;;5049423;28;20052;-60
2023/03/27 02:55:54;;;;;;;8.93;2.07;;;;;;;;;;5047867;28;21087;-60
2023/03/27 02:58:29;;;;;;;7.70;1.47;;;;;;;;;;5049228;28;20373;-60
2023/03/27 03:00:56;;;;;;;12.07;2.43;;;;;;;;;;5050237;28;20362;-60
2023/03/27 03:03:34;;;;;;;9.33;2.00;;;;;;;;;;5050095;28;20394;-60
2023/03/27 03:06:06;;;;;;;8.33;1.80;;;;;;;;;;5049809;28;20306;-60
2023/03/27 03:08:37;;;;;;;6.50;1.63;;;;;;;;;;5049081;28;20662;-60
2023/03/27 03:11:13;;;;;;;10.30;2.20;;;;;;;;;;5050511;28;20337;-60
2023/03/27 03:13:40;;;;;;;13.90;1.93;;;;;;;;;;5049944;28;20650;-60
2023/03/27 03:16:07;;;;;;;9.37;1.83;;;;;;;;;;5049690;28;20299;-59
2023/03/27 03:18:33;;;;;;;11.70;2.60;;;;;;;;;;5049351;28;20829;-60
2023/03/27 03:20:59;;;;;;;8.03;1.67;;;;;;;;;;5049647;28;20280;-59
2023/03/27 03:23:26;;;;;;;29.50;3.77;;;;;;;;;;5049996;28;20303;-60
2023/03/27 03:25:55;;;;;;;14.13;1.80;;;;;;;;;;5049346;28;20793;-60
2023/03/27 03:28:22;;;;;;;9.10;2.00;;;;;;;;;;5049732;28;20769;-60
2023/03/27 03:30:49;;;;;;;6.20;3.57;;;;;;;;;;5049406;28;20309;-60
2023/03/27 03:33:16;;;;;;;10.53;1.73;;;;;;;;;;5049488;28;20290;-60
2023/03/27 03:35:45;;;;;;;6.77;2.07;;;;;;;;;;5049756;28;20288;-60
2023/03/27 03:38:11;;;;;;;5.63;1.27;;;;;;;;;;5048757;28;20291;-60
2023/03/27 03:40:37;;;;;;;8.90;1.53;;;;;;;;;;5048512;28;20287;-60
2023/03/27 03:43:03;;;;;;;6.23;1.43;;;;;;;;;;5048303;28;20294;-60
2023/03/27 03:45:30;;;;;;;8.93;1.77;;;;;;;;;;5049361;28;20322;-60
2023/03/27 03:47:56;;;;;;;6.80;1.93;;;;;;;;;;5049330;28;20049;-60
2023/03/27 03:50:22;;;;;;;7.07;1.57;;;;;;;;;;5049380;28;20353;-60
2023/03/27 03:52:48;;;;;;;4.63;1.70;;;;;;;;;;5048542;28;20385;-60
2023/03/27 03:55:15;;;;;;;6.33;1.57;;;;;;;;;;5049493;28;20288;-60
2023/03/27 03:57:45;;;;;;;10.53;2.10;;;;;;;;;;5049260;28;20059;-60
2023/03/27 04:00:12;;;;;;;14.33;1.60;;;;;;;;;;5049096;28;20319;-60
2023/03/27 04:02:40;;;;;;;8.57;1.63;;;;;;;;;;5049066;28;20874;-60
2023/03/27 04:05:08;;;;;;;8.43;1.83;;;;;;;;;;5049115;28;20342;-60
2023/03/27 04:07:34;;;;;;;6.77;1.73;;;;;;;;;;5048675;28;20334;-60
2023/03/27 04:10:01;;;;;;;7.07;2.10;;;;;;;;;;5048587;28;20291;-60
2023/03/27 04:12:27;;;;;;;10.23;2.00;;;;;;;;;;5048132;28;20307;-60
2023/03/27 04:14:54;;;;;;;8.97;1.77;;;;;;;;;;5048981;28;20366;-59
2023/03/27 04:17:20;;;;;;;8.93;1.87;;;;;;;;;;5049008;28;20379;-59
2023/03/27 04:19:49;;;;;;;15.17;2.40;;;;;;;;;;5048560;28;20284;-59
2023/03/27 04:22:21;;;;;;;7.43;1.73;;;;;;;;;;5048404;28;20980;-59
2023/03/27 04:24:49;;;;;;;7.83;1.67;;;;;;;;;;5048798;28;20339;-59
2023/03/27 04:27:15;;;;;;;12.00;1.90;;;;;;;;;;5048724;28;20299;-59
2023/03/27 04:29:46;;;;;;;6.97;1.87;;;;;;;;;;5048666;28;21255;-59
2023/03/27 04:32:12;;;;;;;7.40;1.47;;;;;;;;;;5049090;28;20290;-59
2023/03/27 04:34:39;;;;;;;7.47;1.80;;;;;;;;;;5047815;28;20299;-59
2023/03/27 04:37:05;;;;;;;8.53;1.87;;;;;;;;;;5048396;28;20287;-59
2023/03/27 04:39:38;;;;;;;12.47;3.77;;;;;;;;;;5048872;28;20287;-59
2023/03/27 04:42:04;;;;;;;15.02;2.13;;;;;;;;;;5047995;28;20307;-59
2023/03/27 04:44:30;;;;;;;6.17;1.90;;;;;;;;;;5047972;28;20629;-59
2023/03/27 04:47:00;;;;;;;13.07;2.00;;;;;;;;;;5047476;28;20309;-59
2023/03/27 04:49:26;;;;;;;11.13;2.00;;;;;;;;;;5048713;28;20439;-59
2023/03/27 04:51:52;;;;;;;6.63;1.73;;;;;;;;;;5048701;28;20812;-59
2023/03/27 04:54:18;;;;;;;8.80;1.80;;;;;;;;;;5048347;28;20055;-59
2023/03/27 04:56:45;;;;;;;16.70;2.27;;;;;;;;;;5046852;28;20279;-59
2023/03/27 04:59:11;;;;;;;7.23;2.40;;;;;;;;;;5047673;28;20434;-59
2023/03/27 05:01:37;;;;;;;7.10;2.03;;;;;;;;;;5047968;28;20325;-59
2023/03/27 05:04:03;;;;;;;10.33;1.90;;;;;;;;;;5048125;28;20311;-60
2023/03/27 05:06:31;;;;;;;7.93;2.10;;;;;;;;;;5048439;28;20789;-60
2023/03/27 05:08:57;;;;;;;8.53;2.50;;;;;;;;;;5048254;28;20378;-60
2023/03/27 05:11:23;;;;;;;12.77;2.70;;;;;;;;;;5047985;28;20367;-60
2023/03/27 05:13:49;;;;;;;13.43;2.43;;;;;;;;;;5048229;28;20076;-59
2023/03/27 05:16:16;;;;;;;9.87;2.40;;;;;;;;;;5048153;28;20287;-60
2023/03/27 05:18:43;;;;;;;11.97;2.20;;;;;;;;;;5048147;28;20276;-59
2023/03/27 05:21:10;;;;;;;9.90;2.10;;;;;;;;;;5048412;28;20695;-59
2023/03/27 05:23:37;;;;;;;11.97;4.03;;;;;;;;;;5047743;28;20303;-59
2023/03/27 05:26:04;;;;;;;8.47;1.97;;;;;;;;;;5047538;28;20335;-60
2023/03/27 05:28:30;;;;;;;11.40;2.70;;;;;;;;;;5046720;28;20354;-60
2023/03/27 05:30:56;;;;;;;13.70;2.07;;;;;;;;;;5044915;28;20335;-59
2023/03/27 05:33:22;;;;;;;12.60;2.60;;;;;;;;;;5050556;28;20641;-60
2023/03/27 05:35:49;;;;;;;9.57;2.53;;;;;;;;;;5051377;28;20284;-60
2023/03/27 05:38:15;;;;;;;10.07;2.07;;;;;;;;;;5051142;28;20279;-60
2023/03/27 05:40:41;;;;;;;15.83;3.07;;;;;;;;;;5051586;28;20291;-59
2023/03/27 05:43:07;;;;;;;16.17;2.10;;;;;;;;;;5051613;28;20287;-60
2023/03/27 05:45:34;;;;;;;14.07;2.50;;;;;;;;;;5050550;28;20757;-60
2023/03/27 05:48:01;;;;;;;11.80;2.43;;;;;;;;;;5051109;28;20298;-60
2023/03/27 05:50:32;;;;;;;11.57;2.60;;;;;;;;;;5051241;28;20287;-59
2023/03/27 05:53:06;;;;;;;14.23;3.43;;;;;;;;;;5050417;28;20755;-60
2023/03/27 05:55:32;;;;;;;15.37;2.40;;;;;;;;;;5049233;28;20300;-60
2023/03/27 05:57:59;;;;;;;6.50;2.03;;;;;;;;;;5048669;28;20300;-60
2023/03/27 06:00:26;;;;;;;14.40;2.33;;;;;;;;;;5049125;28;20300;-60
2023/03/27 06:02:55;;;;;;;12.37;2.83;;;;;;;;;;5050429;28;20804;-60
2023/03/27 06:05:22;;;;;;;11.43;3.13;;;;;;;;;;5050882;28;20304;-60
2023/03/27 06:07:49;;;;;;;18.90;3.77;;;;;;;;;;5050678;28;20377;-60
2023/03/27 06:10:16;;;;;;;15.47;2.53;;;;;;;;;;5050843;28;20290;-59
2023/03/27 06:12:43;;;;;;;17.07;3.00;;;;;;;;;;5050489;28;20366;-60
2023/03/27 06:15:10;;;;;;;12.23;2.80;;;;;;;;;;5049616;28;20291;-60
2023/03/27 06:17:38;;;;;;;13.70;3.67;;;;;;;;;;5049985;28;20287;-60
2023/03/27 06:20:11;;;;;;;10.17;3.13;;;;;;;;;;5051167;28;21136;-59
2023/03/27 06:22:54;;;;;;;8.07;2.58;;;;;;;;;;5044744;28;20285;-60
2023/03/27 06:25:20;;;;;;;12.43;2.47;;;;;;;;;;5041474;28;20093;-59
2023/03/27 06:27:48;;;;;;;13.53;2.10;;;;;;;;;;5040871;28;20053;-59
2023/03/27 06:30:16;;;;;;;12.23;2.27;;;;;;;;;;5043074;28;20423;-59
2023/03/27 06:32:46;;;;;;;13.60;2.30;;;;;;;;;;5045194;28;20394;-60
2023/03/27 06:35:13;;;;;;;9.37;2.43;;;;;;;;;;5042692;28;20285;-59
2023/03/27 06:37:45;;;;;;;13.20;2.10;;;;;;;;;;5038776;28;20508;-60
2023/03/27 06:40:19;;;;;;;11.80;1.90;;;;;;;;;;5042154;28;20295;-59
2023/03/27 06:42:52;;;;;;;12.80;2.13;;;;;;;;;;5042427;28;20310;-61
2023/03/27 06:45:18;;;;;;;15.75;3.42;;;;;;;;;;5033275;28;20310;-59
2023/03/27 06:47:51;;;;;;;15.73;2.60;;;;;;;;;;5046483;28;20198;-59
2023/03/27 06:50:18;;;;;;;12.60;2.63;;;;;;;;;;5049100;28;20302;-61
2023/03/27 06:52:44;;;;;;;12.23;2.43;;;;;;;;;;5049952;28;20713;-61
2023/03/27 06:55:11;;;;;;;15.33;3.23;;;;;;;;;;5050168;28;20311;-58
2023/03/27 06:57:41;;;;;;;12.73;2.10;;;;;;;;;;5049529;28;20302;-59
2023/03/27 07:00:11;;;;;;;13.03;2.97;;;;;;;;;;5049737;28;20291;-59
2023/03/27 07:02:38;;;;;;;12.57;1.90;;;;;;;;;;5049876;28;21004;-59
2023/03/27 07:05:06;;;;;;;7.57;2.03;;;;;;;;;;5049682;28;20309;-61
2023/03/27 07:07:32;;;;;;;6.63;1.97;;;;;;;;;;5050570;28;20292;-60
2023/03/27 07:09:58;;;;;;;7.83;2.07;;;;;;;;;;5048798;28;20308;-60
2023/03/27 07:12:24;;;;;;;13.27;2.30;;;;;;;;;;5049313;28;20306;-60
2023/03/27 07:14:50;;;;;;;9.77;2.87;;;;;;;;;;5049384;28;20479;-60
2023/03/27 07:17:16;;;;;;;7.67;1.93;;;;;;;;;;5048917;28;21009;-60
2023/03/27 07:19:42;;;;;;;10.87;2.80;;;;;;;;;;5048972;28;20279;-60
2023/03/27 07:22:08;;;;;;;8.87;1.97;;;;;;;;;;5049435;28;20278;-60
2023/03/27 07:24:35;;;;;;;11.90;1.83;;;;;;;;;;5048782;28;20450;-60
2023/03/27 07:27:01;;;;;;;8.43;1.70;;;;;;;;;;5046878;28;20307;-60
2023/03/27 07:29:27;;;;;;;7.83;1.87;;;;;;;;;;5049734;28;20287;-61
2023/03/27 07:31:53;;;;;;;7.53;2.20;;;;;;;;;;5049712;28;20048;-61
2023/03/27 07:34:19;;;;;;;11.57;2.07;;;;;;;;;;5054963;28;20302;-60
2023/03/27 07:36:45;;;;;;;6.63;1.57;;;;;;;;;;5062711;28;20053;-61
2023/03/27 07:39:13;;;;;;;4.83;1.73;;;;;;;;;;5049493;28;20699;-60
2023/03/27 07:41:39;;;;;;;11.40;2.23;;;;;;;;;;5048036;28;20383;-60
2023/03/27 07:44:05;;;;;;;10.60;1.87;;;;;;;;;;5048500;28;20323;-61
2023/03/27 07:46:31;;;;;;;10.60;2.00;;;;;;;;;;5049151;28;20279;-60
2023/03/27 07:48:57;;;;;;;9.77;2.77;;;;;;;;;;5049603;28;20041;-60
2023/03/27 07:51:23;;;;;;;7.97;1.90;;;;;;;;;;5049581;28;20037;-60
2023/03/27 07:53:54;;;;;;;10.23;1.30;;;;;;;;;;5047462;28;20288;-61
2023/03/27 07:56:22;;;;;;;10.53;1.90;;;;;;;;;;5048659;28;20127;-60
2023/03/27 07:58:48;;;;;;;13.43;2.10;;;;;;;;;;5049452;28;20291;-60
2023/03/27 08:01:14;;;;;;;14.67;2.90;;;;;;;;;;5049114;28;20279;-61
2023/03/27 08:03:40;;;;;;;7.13;1.17;;;;;;;;;;5048616;28;20314;-61
2023/03/27 08:06:07;;;;;;;7.50;1.60;;;;;;;;;;5047757;28;20127;-61
2023/03/27 08:08:33;;;;;;;10.73;1.13;;;;;;;;;;5049010;28;20045;-60
2023/03/27 08:11:00;;;;;;;7.90;1.50;;;;;;;;;;5049200;28;20692;-60
2023/03/27 08:13:26;;;;;;;14.23;2.40;;;;;;;;;;5048516;28;20362;-60
2023/03/27 08:16:01;;;;;;;10.30;1.20;;;;;;;;;;5048664;28;20279;-60
2023/03/27 08:18:27;;;;;;;10.30;1.70;;;;;;;;;;5049157;28;20079;-60
2023/03/27 08:20:57;;;;;;;9.33;1.47;;;;;;;;;;5047637;28;20053;-61
2023/03/27 08:23:26;;;;;;;8.20;1.53;;;;;;;;;;5049015;28;20049;-61
2023/03/27 08:25:53;;;;;;;6.87;1.13;;;;;;;;;;5041729;28;20059;-61
2023/03/27 08:28:19;;;;;;;5.00;0.80;;;;;;;;;;5046319;28;20059;-61
2023/03/27 08:30:45;;;;;;;6.17;1.33;;;;;;;;;;5048882;28;20052;-61
2023/03/27 08:33:11;;;;;;;8.23;1.50;;;;;;;;;;5048288;28;20411;-61
2023/03/27 08:35:37;;;;;;;8.27;1.30;;;;;;;;;;5048455;28;20342;-61
2023/03/27 08:38:04;;;;;;;9.47;2.40;;;;;;;;;;5063590;28;20041;-61
2023/03/27 08:40:33;;;;;;;4.33;1.23;;;;;;;;;;5047449;28;20430;-61
2023/03/27 08:43:03;;;;;;;7.07;1.03;;;;;;;;;;5047261;28;20398;-61
2023/03/27 08:45:37;;;;;;;7.13;1.53;;;;;;;;;;5046689;28;20085;-62
2023/03/27 08:48:11;;;;;;;9.77;1.33;;;;;;;;;;5048364;28;20052;-61
2023/03/27 08:50:43;;;;;;;8.97;1.27;;;;;;;;;;5048510;28;20095;-60
2023/03/27 08:53:29;;;;;;;9.70;1.37;;;;;;;;;;5048013;28;20515;-60
2023/03/27 08:55:56;;;;;;;6.97;1.67;;;;;;;;;;5048323;28;20041;-60
2023/03/27 08:58:22;;;;;;;9.60;1.30;;;;;;;;;;5048519;28;20127;-60
2023/03/27 09:00:52;;;;;;;6.07;1.10;;;;;;;;;;5048015;28;20487;-60
2023/03/27 09:03:18;;;;;;;7.80;0.97;;;;;;;;;;5048069;28;20148;-60
2023/03/27 09:05:47;;;;;;;3.47;1.00;;;;;;;;;;5048181;28;20098;-60
2023/03/27 09:08:14;;;;;;;4.23;0.73;;;;;;;;;;5050527;28;20045;-60
2023/03/27 09:10:49;;;;;;;11.00;2.00;;;;;;;;;;5051711;28;20061;-60
2023/03/27 09:13:30;;;;;;;9.07;1.20;;;;;;;;;;5051993;28;20415;-60
2023/03/27 09:16:04;;;;;;;8.83;1.53;;;;;;;;;;5051831;28;20037;-60
2023/03/27 09:18:33;;;;;;;9.10;2.00;;;;;;;;;;5051550;28;20124;-62
2023/03/27 09:21:09;;;;;;;11.37;1.67;;;;;;;;;;5051742;28;20049;-64
2023/03/27 09:23:42;;;;;;;11.57;1.53;;;;;;;;;;5052235;28;20139;-65
2023/03/27 09:26:17;;;;;;;11.75;1.58;;;;;;;;;;5051565;28;20075;-64
2023/03/27 09:28:50;;;;;;;4.47;1.00;;;;;;;;;;5045519;28;20501;-64
2023/03/27 09:31:16;;;;;;;8.38;1.10;;;;;;;;;;5042401;28;20741;-63
2023/03/27 09:33:43;;;;;;;84.37;9.10;;;;;;;;;;5039332;28;20057;-63
2023/03/27 09:36:10;;;;;;;8.23;1.10;;;;;;;;;;5042301;28;20122;-63
2023/03/27 09:38:37;;;;;;;3.67;0.90;;;;;;;;;;5041110;28;20140;-64
2023/03/27 09:41:07;;;;;;;5.50;1.00;;;;;;;;;;5037630;28;20049;-64
2023/03/27 09:43:40;;;;;;;17.07;2.40;;;;;;;;;;5031567;28;20052;-64
2023/03/27 09:46:08;;;;;;;7.60;1.67;;;;;;;;;;5031228;28;20046;-64
2023/03/27 09:48:36;;;;;;;2.43;0.60;;;;;;;;;;5031543;28;20128;-64
2023/03/27 09:51:04;;;;;;;3.63;0.77;;;;;;;;;;5033174;28;20054;-64
2023/03/27 09:53:30;;;;;;;7.83;1.10;;;;;;;;;;5033283;28;20439;-63
2023/03/27 09:55:57;;;;;;;6.27;1.60;;;;;;;;;;5040731;28;20115;-63
2023/03/27 09:58:23;;;;;;;6.63;1.23;;;;;;;;;;5038120;28;20119;-63
2023/03/27 10:01:05;;;;;;;7.53;0.90;;;;;;;;;;5039213;28;20377;-64
2023/03/27 10:03:36;;;;;;;5.70;1.73;;;;;;;;;;5038116;28;20051;-63
2023/03/27 10:06:06;;;;;;;4.53;0.80;;;;;;;;;;5041873;28;20051;-62
2023/03/27 10:08:39;;;;;;;4.87;0.93;;;;;;;;;;5039791;28;20049;-62
2023/03/27 10:11:06;;;;;;;5.97;1.55;;;;;;;;;;5038443;28;20041;-63
2023/03/27 10:13:33;;;;;;;5.10;1.10;;;;;;;;;;5039951;28;20053;-62
2023/03/27 10:16:00;;;;;;;7.70;1.10;;;;;;;;;;5039286;28;20037;-62
2023/03/27 10:18:27;;;;;;;10.63;1.57;;;;;;;;;;5042172;28;20475;-62
2023/03/27 10:20:54;;;;;;;7.43;1.27;;;;;;;;;;5046613;28;20033;-62
2023/03/27 10:23:23;;;;;;;7.33;1.20;;;;;;;;;;5050776;28;20112;-62
2023/03/27 10:25:50;;;;;;;5.17;1.30;;;;;;;;;;5050725;28;20049;-62
2023/03/27 10:28:20;;;;;;;5.23;1.40;;;;;;;;;;5036607;28;20103;-63
2023/03/27 10:30:57;;;;;;;5.97;1.17;;;;;;;;;;5029771;28;20049;-63
2023/03/27 10:33:34;;;;;;;4.83;1.13;;;;;;;;;;5045892;28;20060;-63
2023/03/27 10:36:00;;;;;;;8.93;1.50;;;;;;;;;;5037819;28;20049;-63
2023/03/27 10:38:27;;;;;;;8.43;1.67;;;;;;;;;;5050849;28;20049;-63
2023/03/27 10:40:54;;;;;;;7.43;1.50;;;;;;;;;;5050076;28;20048;-63
2023/03/27 10:43:36;;;;;;;11.43;1.53;;;;;;;;;;5050248;28;20068;-64
2023/03/27 10:46:09;;;;;;;7.77;1.27;;;;;;;;;;5047556;28;20044;-62
2023/03/27 10:48:37;;;;;;;8.43;1.23;;;;;;;;;;5049920;28;20045;-62
2023/03/27 10:51:05;;;;;;;6.33;1.30;;;;;;;;;;5049325;28;20419;-61
2023/03/27 10:53:43;;;;;;;8.17;1.63;;;;;;;;;;5050106;28;20052;-62
2023/03/27 10:56:14;;;;;;;8.80;1.43;;;;;;;;;;5050053;28;20354;-63
2023/03/27 10:58:51;;;;;;;5.63;1.60;;;;;;;;;;5047829;28;20061;-62
2023/03/27 11:01:49;;;;;;;7.97;1.50;;;;;;;;;;5049612;28;20045;-62
2023/03/27 11:04:31;;;;;;;6.53;1.17;;;;;;;;;;5016382;28;20053;-62
2023/03/27 11:06:59;;;;;;;5.17;0.97;;;;;;;;;;5049802;28;20136;-63
2023/03/27 11:09:29;;;;;;;7.53;1.20;;;;;;;;;;5049364;28;20041;-62
2023/03/27 11:11:58;;;;;;;4.77;1.47;;;;;;;;;;5049885;28;20127;-62
2023/03/27 11:14:34;;;;;;;5.77;0.80;;;;;;;;;;5049578;28;20053;-62
2023/03/27 11:17:02;;;;;;;3.70;0.93;;;;;;;;;;5049573;28;20095;-62
2023/03/27 11:19:28;;;;;;;11.97;1.50;;;;;;;;;;5049772;28;20045;-62
2023/03/27 11:21:57;;;;;;;6.03;1.40;;;;;;;;;;5049668;28;20045;-62
2023/03/27 11:24:33;;;;;;;7.83;1.00;;;;;;;;;;5049200;28;20052;-62
2023/03/27 11:27:19;;;;;;;8.50;1.20;;;;;;;;;;5048366;28;20060;-62
2023/03/27 11:29:50;;;;;;;3.23;1.33;;;;;;;;;;5043817;28;20049;-62
2023/03/27 11:32:28;;;;;;;3.43;0.63;;;;;;;;;;5039547;28;20086;-62
2023/03/27 11:35:05;;;;;;;4.37;1.00;;;;;;;;;;5039052;28;20048;-62
2023/03/27 11:37:38;;;;;;;6.10;1.17;;;;;;;;;;5039095;28;20186;-62
2023/03/27 11:40:10;;;;;;;3.58;1.20;;;;;;;;;;5036432;28;20088;-62
2023/03/27 11:42:39;;;;;;;8.60;1.50;;;;;;;;;;5044607;28;20041;-62
2023/03/27 11:45:08;;;;;;;6.20;0.97;;;;;;;;;;5038628;28;20064;-62
2023/03/27 11:47:50;;;;;;;6.60;1.10;;;;;;;;;;5036391;28;20103;-62
2023/03/27 11:50:26;;;;;;;7.77;0.97;;;;;;;;;;5034275;28;20411;-62
2023/03/27 11:53:01;;;;;;;2.60;0.90;;;;;;;;;;5043668;28;20041;-62
2023/03/27 11:55:55;;;;;;;2.67;0.43;;;;;;;;;;5037443;28;20102;-62
2023/03/27 11:58:29;;;;;;;3.77;0.83;;;;;;;;;;5034599;28;20390;-62
2023/03/27 12:01:08;;;;;;;3.60;0.50;;;;;;;;;;5028675;28;20081;-61
2023/03/27 12:03:41;;;;;;;2.63;0.80;;;;;;;;;;5044679;28;20148;-62
2023/03/27 12:06:17;;;;;;;3.60;0.70;;;;;;;;;;5029143;28;20041;-62
2023/03/27 12:09:03;;;;;;;4.63;0.80;;;;;;;;;;5028856;28;20068;-62
2023/03/27 12:11:30;;;;;;;2.97;0.50;;;;;;;;;;5028457;28;20041;-62
2023/03/27 12:13:56;;;;;;;3.03;0.80;;;;;;;;;;5040941;28;20040;-62
2023/03/27 12:16:40;;;;;;;5.77;0.87;;;;;;;;;;5047433;28;20056;-64
2023/03/27 12:19:19;;;;;;;5.33;0.77;;;;;;;;;;5045771;28;20098;-61
2023/03/27 12:21:45;;;;;;;2.00;0.60;;;;;;;;;;5047683;28;20053;-61
2023/03/27 12:24:11;;;;;;;8.03;1.20;;;;;;;;;;5045284;28;20049;-61
2023/03/27 12:26:56;;;;;;;6.77;1.20;;;;;;;;;;5028752;28;20049;-61
2023/03/27 12:29:29;;;;;;;5.37;0.80;;;;;;;;;;5031647;28;20148;-60
2023/03/27 12:31:58;;;;;;;5.15;0.90;;;;;;;;;;5028781;28;20099;-61
2023/03/27 12:34:30;;;;;;;6.60;1.40;;;;;;;;;;5035182;28;20045;-62
2023/03/27 12:36:58;;;;;;;6.93;1.13;;;;;;;;;;5038006;28;20049;-60
2023/03/27 12:39:25;;;;;;;2.30;0.67;;;;;;;;;;5042500;28;20049;-61
2023/03/27 12:41:52;;;;;;;2.63;0.50;;;;;;;;;;5039357;28;20483;-61
2023/03/27 12:44:20;;;;;;;3.03;0.70;;;;;;;;;;5040319;28;20100;-61
2023/03/27 12:47:05;;;;;;;3.47;0.70;;;;;;;;;;5040098;28;20052;-61
2023/03/27 12:49:45;;;;;;;1.70;0.63;;;;;;;;;;5040570;28;20132;-62
2023/03/27 12:52:11;;;;;;;5.23;1.00;;;;;;;;;;5040813;28;20506;-60
2023/03/27 12:54:38;;;;;;;4.83;0.97;;;;;;;;;;5035366;28;20046;-60
2023/03/27 12:57:21;;;;;;;5.27;0.97;;;;;;;;;;5038848;28;20068;-61
2023/03/27 12:59:50;;;;;;;5.00;1.10;;;;;;;;;;5040261;28;20731;-60
2023/03/27 13:02:16;;;;;;;9.97;1.23;;;;;;;;;;5037973;28;20045;-60
2023/03/27 13:04:48;;;;;;;5.30;1.27;;;;;;;;;;5038581;28;20049;-61
2023/03/27 13:07:15;;;;;;;6.33;1.33;;;;;;;;;;5045499;28;20885;-61
2023/03/27 13:09:44;;;;;;;5.17;1.20;;;;;;;;;;5040239;28;20430;-61
2023/03/27 13:12:22;;;;;;;4.90;1.20;;;;;;;;;;5040567;28;20052;-61
2023/03/27 13:14:54;;;;;;;5.13;1.00;;;;;;;;;;5040628;28;20090;-61
2023/03/27 13:17:29;;;;;;;5.93;1.20;;;;;;;;;;5040393;28;20140;-61
2023/03/27 13:20:15;;;;;;;3.60;1.10;;;;;;;;;;5042021;28;20080;-60
2023/03/27 13:22:44;;;;;;;4.70;1.13;;;;;;;;;;5041047;28;20041;-61
2023/03/27 13:25:20;;;;;;;6.37;1.20;;;;;;;;;;5042705;28;20044;-60
2023/03/27 13:27:51;;;;;;;5.67;0.90;;;;;;;;;;5042171;28;20065;-60
2023/03/27 13:30:39;;;;;;;8.60;1.33;;;;;;;;;;5047539;28;20060;-60
2023/03/27 13:33:15;;;;;;;7.87;1.50;;;;;;;;;;5038033;28;20045;-60
2023/03/27 13:35:49;;;;;;;4.37;1.07;;;;;;;;;;5031251;28;20116;-60
2023/03/27 13:38:16;;;;;;;5.30;1.20;;;;;;;;;;5031287;28;20427;-60
2023/03/27 13:40:44;;;;;;;5.30;0.90;;;;;;;;;;5031038;28;20056;-60
2023/03/27 13:43:25;;;;;;;3.97;1.10;;;;;;;;;;5031227;28;20053;-60
2023/03/27 13:45:52;;;;;;;5.13;0.90;;;;;;;;;;5031437;28;20100;-60
2023/03/27 13:48:24;;;;;;;4.17;0.97;;;;;;;;;;5031466;28;20087;-60
2023/03/27 13:51:00;;;;;;;8.00;1.53;;;;;;;;;;5031540;28;20053;-60
2023/03/27 13:53:45;;;;;;;7.37;1.40;;;;;;;;;;5030322;28;20292;-59
2023/03/27 13:56:28;;;;;;;8.27;1.57;;;;;;;;;;5031342;28;20047;-60
2023/03/27 13:59:09;;;;;;;8.82;1.63;;;;;;;;;;5036458;28;20059;-59
2023/03/27 14:01:38;;;;;;;7.03;1.50;;;;;;;;;;5041636;28;20045;-59
2023/03/27 14:04:13;;;;;;;5.67;1.20;;;;;;;;;;5041111;28;20044;-59
2023/03/27 14:06:39;;;;;;;6.57;1.13;;;;;;;;;;5042527;28;20041;-60
2023/03/27 14:09:23;;;;;;;8.57;1.40;;;;;;;;;;5040650;28;20048;-59
2023/03/27 14:11:49;;;;;;;;;;;;;;;;;;5042006;28;20508;-60
2023/03/27 14:14:22;;;;;;;7.60;1.67;;;;;;;;;;5039310;28;19975;-60
2023/03/27 14:16:51;;;;;;;7.82;1.55;;;;;;;;;;5038094;28;20045;-60
2023/03/27 14:19:17;;;;;;;10.17;2.47;;;;;;;;;;5041940;28;20053;-59
2023/03/27 14:21:51;;;;;;;5.47;0.80;;;;;;;;;;5037603;28;20576;-60
2023/03/27 14:24:38;;;;;;;6.57;1.03;;;;;;;;;;5040167;28;20049;-59
2023/03/27 14:27:06;;;;;;;9.10;1.87;;;;;;;;;;5037394;28;20061;-60
2023/03/27 14:29:33;;;;;;;5.07;1.67;;;;;;;;;;5037188;28;20046;-60
2023/03/27 14:32:03;;;;;;;4.07;1.30;;;;;;;;;;5039767;28;20037;-59
2023/03/27 14:34:33;;;;;;;4.63;1.17;;;;;;;;;;5039834;28;20090;-60
2023/03/27 14:36:59;;;;;;;7.00;1.67;;;;;;;;;;5037335;28;20048;-59
2023/03/27 14:39:27;;;;;;;5.40;0.97;;;;;;;;;;5037396;28;20074;-60
2023/03/27 14:41:55;;;;;;;8.10;1.70;;;;;;;;;;5039110;28;20048;-60
2023/03/27 14:44:22;;;;;;;4.60;0.90;;;;;;;;;;5037157;28;20049;-60
2023/03/27 14:46:49;;;;;;;5.97;1.00;;;;;;;;;;5043909;28;20049;-61
2023/03/27 14:49:18;;;;;;;6.73;1.37;;;;;;;;;;5042954;28;20106;-61
2023/03/27 14:51:46;;;;;;;8.13;0.83;;;;;;;;;;5049345;28;20041;-61
2023/03/27 14:54:17;;;;;;;4.50;1.27;;;;;;;;;;5032949;28;20045;-60
2023/03/27 14:56:46;;;;;;;3.23;0.90;;;;;;;;;;5033388;28;20124;-60